sensor_id;sensor_type;location;lat;lon;timestamp;P1;durP1;ratioP1;P2;durP2;ratioP2
33268;SDS011;19640;50.944;5.260;2022-12-18T00:01:31;83.90;;;29.67;;
33268;SDS011;19640;50.944;5.260;2022-12-18T00:03:59;86.55;;;31.70;;
33268;SDS011;19640;50.944;5.260;2022-12-18T00:06:26;89.38;;;31.08;;
33268;SDS011;19640;50.944;5.260;2022-12-18T00:08:54;100.20;;;32.75;;
33268;SDS011;19640;50.944;5.260;2022-12-18T00:11:23;85.13;;;30.95;;
33268;SDS011;19640;50.944;5.260;2022-12-18T00:13:50;85.22;;;31.88;;
33268;SDS011;19640;50.944;5.260;2022-12-18T00:16:18;90.38;;;32.33;;
33268;SDS011;19640;50.944;5.260;2022-12-18T00:18:45;100.13;;;34.50;;
33268;SDS011;19640;50.944;5.260;2022-12-18T00:21:12;99.22;;;32.97;;
33268;SDS011;19640;50.944;5.260;2022-12-18T00:23:39;94.30;;;31.23;;
33268;SDS011;19640;50.944;5.260;2022-12-18T00:26:09;83.65;;;29.92;;
33268;SDS011;19640;50.944;5.260;2022-12-18T00:28:37;94.88;;;33.20;;
33268;SDS011;19640;50.944;5.260;2022-12-18T00:31:04;94.55;;;31.55;;
33268;SDS011;19640;50.944;5.260;2022-12-18T00:33:31;85.15;;;30.25;;
33268;SDS011;19640;50.944;5.260;2022-12-18T00:36:03;85.10;;;29.92;;
33268;SDS011;19640;50.944;5.260;2022-12-18T00:38:30;80.20;;;28.23;;
33268;SDS011;19640;50.944;5.260;2022-12-18T00:40:56;86.43;;;30.33;;
33268;SDS011;19640;50.944;5.260;2022-12-18T00:43:22;88.13;;;31.77;;
33268;SDS011;19640;50.944;5.260;2022-12-18T00:45:48;89.75;;;30.00;;
33268;SDS011;19640;50.944;5.260;2022-12-18T00:48:13;85.90;;;28.70;;
33268;SDS011;19640;50.944;5.260;2022-12-18T00:50:39;75.53;;;28.35;;
33268;SDS011;19640;50.944;5.260;2022-12-18T00:53:05;95.35;;;31.60;;
33268;SDS011;19640;50.944;5.260;2022-12-18T00:55:31;84.20;;;29.17;;
33268;SDS011;19640;50.944;5.260;2022-12-18T00:57:56;87.25;;;30.17;;
33268;SDS011;19640;50.944;5.260;2022-12-18T01:00:22;88.28;;;30.63;;
33268;SDS011;19640;50.944;5.260;2022-12-18T01:02:48;93.85;;;32.83;;
33268;SDS011;19640;50.944;5.260;2022-12-18T01:05:14;86.45;;;30.38;;
33268;SDS011;19640;50.944;5.260;2022-12-18T01:07:40;84.90;;;29.90;;
33268;SDS011;19640;50.944;5.260;2022-12-18T01:10:09;90.88;;;31.15;;
33268;SDS011;19640;50.944;5.260;2022-12-18T01:12:37;97.22;;;33.00;;
33268;SDS011;19640;50.944;5.260;2022-12-18T01:15:04;91.57;;;30.90;;
33268;SDS011;19640;50.944;5.260;2022-12-18T01:17:31;86.18;;;31.98;;
33268;SDS011;19640;50.944;5.260;2022-12-18T01:19:57;91.20;;;30.75;;
33268;SDS011;19640;50.944;5.260;2022-12-18T01:22:22;89.80;;;29.85;;
33268;SDS011;19640;50.944;5.260;2022-12-18T01:24:48;92.55;;;32.67;;
33268;SDS011;19640;50.944;5.260;2022-12-18T01:27:14;85.25;;;32.00;;
33268;SDS011;19640;50.944;5.260;2022-12-18T01:29:39;83.97;;;28.98;;
33268;SDS011;19640;50.944;5.260;2022-12-18T01:32:05;87.72;;;29.05;;
33268;SDS011;19640;50.944;5.260;2022-12-18T01:34:31;84.97;;;29.50;;
33268;SDS011;19640;50.944;5.260;2022-12-18T01:36:57;84.35;;;29.70;;
33268;SDS011;19640;50.944;5.260;2022-12-18T01:39:23;73.03;;;27.08;;
33268;SDS011;19640;50.944;5.260;2022-12-18T01:41:48;73.57;;;29.20;;
33268;SDS011;19640;50.944;5.260;2022-12-18T01:47:28;79.18;;;28.63;;
33268;SDS011;19640;50.944;5.260;2022-12-18T01:49:56;84.32;;;30.70;;
33268;SDS011;19640;50.944;5.260;2022-12-18T01:52:26;87.72;;;28.73;;
33268;SDS011;19640;50.944;5.260;2022-12-18T01:54:54;81.18;;;29.67;;
33268;SDS011;19640;50.944;5.260;2022-12-18T01:57:20;80.32;;;28.98;;
33268;SDS011;19640;50.944;5.260;2022-12-18T01:59:47;78.32;;;29.85;;
33268;SDS011;19640;50.944;5.260;2022-12-18T02:02:17;86.05;;;30.00;;
33268;SDS011;19640;50.944;5.260;2022-12-18T02:04:44;88.15;;;29.80;;
33268;SDS011;19640;50.944;5.260;2022-12-18T02:12:42;84.75;;;28.27;;
33268;SDS011;19640;50.944;5.260;2022-12-18T02:20:50;78.80;;;26.13;;
33268;SDS011;19640;50.944;5.260;2022-12-18T02:23:47;76.55;;;28.83;;
33268;SDS011;19640;50.944;5.260;2022-12-18T02:29:00;72.70;;;26.08;;
33268;SDS011;19640;50.944;5.260;2022-12-18T02:31:31;76.95;;;28.70;;
33268;SDS011;19640;50.944;5.260;2022-12-18T02:34:04;68.03;;;26.00;;
33268;SDS011;19640;50.944;5.260;2022-12-18T02:36:32;76.65;;;26.50;;
33268;SDS011;19640;50.944;5.260;2022-12-18T02:39:01;67.88;;;27.77;;
33268;SDS011;19640;50.944;5.260;2022-12-18T02:41:28;63.95;;;24.88;;
33268;SDS011;19640;50.944;5.260;2022-12-18T02:43:57;53.78;;;24.90;;
33268;SDS011;19640;50.944;5.260;2022-12-18T02:46:31;68.00;;;26.52;;
33268;SDS011;19640;50.944;5.260;2022-12-18T02:49:08;66.28;;;25.77;;
33268;SDS011;19640;50.944;5.260;2022-12-18T02:51:51;62.55;;;24.95;;
33268;SDS011;19640;50.944;5.260;2022-12-18T02:56:49;63.67;;;24.17;;
33268;SDS011;19640;50.944;5.260;2022-12-18T02:59:19;61.17;;;24.52;;
33268;SDS011;19640;50.944;5.260;2022-12-18T03:01:58;60.83;;;22.80;;
33268;SDS011;19640;50.944;5.260;2022-12-18T03:04:42;61.80;;;24.42;;
33268;SDS011;19640;50.944;5.260;2022-12-18T03:07:15;61.45;;;24.20;;
33268;SDS011;19640;50.944;5.260;2022-12-18T03:09:48;52.83;;;22.75;;
33268;SDS011;19640;50.944;5.260;2022-12-18T03:12:24;60.38;;;22.38;;
33268;SDS011;19640;50.944;5.260;2022-12-18T03:17:29;65.10;;;24.60;;
33268;SDS011;19640;50.944;5.260;2022-12-18T03:19:58;57.55;;;23.50;;
33268;SDS011;19640;50.944;5.260;2022-12-18T03:22:35;61.90;;;22.60;;
33268;SDS011;19640;50.944;5.260;2022-12-18T03:25:04;49.08;;;21.90;;
33268;SDS011;19640;50.944;5.260;2022-12-18T03:27:33;49.35;;;20.02;;
33268;SDS011;19640;50.944;5.260;2022-12-18T03:30:04;59.25;;;21.73;;
33268;SDS011;19640;50.944;5.260;2022-12-18T03:33:08;55.45;;;23.05;;
33268;SDS011;19640;50.944;5.260;2022-12-18T03:35:33;51.22;;;22.40;;
33268;SDS011;19640;50.944;5.260;2022-12-18T03:38:03;45.50;;;21.13;;
33268;SDS011;19640;50.944;5.260;2022-12-18T03:40:39;56.33;;;22.05;;
33268;SDS011;19640;50.944;5.260;2022-12-18T03:43:28;56.13;;;21.58;;
33268;SDS011;19640;50.944;5.260;2022-12-18T03:46:16;49.97;;;21.33;;
33268;SDS011;19640;50.944;5.260;2022-12-18T03:49:02;51.45;;;22.17;;
33268;SDS011;19640;50.944;5.260;2022-12-18T03:54:07;51.22;;;20.98;;
33268;SDS011;19640;50.944;5.260;2022-12-18T03:56:42;50.45;;;20.98;;
33268;SDS011;19640;50.944;5.260;2022-12-18T03:59:13;50.08;;;20.88;;
33268;SDS011;19640;50.944;5.260;2022-12-18T04:01:42;52.08;;;20.50;;
33268;SDS011;19640;50.944;5.260;2022-12-18T04:06:38;42.90;;;18.88;;
33268;SDS011;19640;50.944;5.260;2022-12-18T04:09:05;46.25;;;18.92;;
33268;SDS011;19640;50.944;5.260;2022-12-18T04:11:31;52.50;;;20.83;;
33268;SDS011;19640;50.944;5.260;2022-12-18T04:13:57;45.25;;;18.38;;
33268;SDS011;19640;50.944;5.260;2022-12-18T04:16:26;51.00;;;20.80;;
33268;SDS011;19640;50.944;5.260;2022-12-18T04:18:53;52.47;;;20.60;;
33268;SDS011;19640;50.944;5.260;2022-12-18T04:21:19;42.60;;;18.65;;
33268;SDS011;19640;50.944;5.260;2022-12-18T04:23:45;53.70;;;20.48;;
33268;SDS011;19640;50.944;5.260;2022-12-18T04:26:10;60.85;;;21.77;;
33268;SDS011;19640;50.944;5.260;2022-12-18T04:28:36;49.53;;;19.70;;
33268;SDS011;19640;50.944;5.260;2022-12-18T04:31:02;48.28;;;19.00;;
33268;SDS011;19640;50.944;5.260;2022-12-18T04:33:27;49.67;;;20.35;;
33268;SDS011;19640;50.944;5.260;2022-12-18T04:35:53;46.28;;;19.48;;
33268;SDS011;19640;50.944;5.260;2022-12-18T04:38:19;57.63;;;22.27;;
33268;SDS011;19640;50.944;5.260;2022-12-18T04:40:44;46.45;;;20.75;;
33268;SDS011;19640;50.944;5.260;2022-12-18T04:43:10;48.20;;;19.98;;
33268;SDS011;19640;50.944;5.260;2022-12-18T04:45:36;55.50;;;22.63;;
33268;SDS011;19640;50.944;5.260;2022-12-18T04:48:02;52.67;;;23.08;;
33268;SDS011;19640;50.944;5.260;2022-12-18T04:50:28;52.72;;;22.63;;
33268;SDS011;19640;50.944;5.260;2022-12-18T04:52:54;52.50;;;21.73;;
33268;SDS011;19640;50.944;5.260;2022-12-18T04:55:20;51.53;;;19.88;;
33268;SDS011;19640;50.944;5.260;2022-12-18T04:57:45;54.97;;;20.48;;
33268;SDS011;19640;50.944;5.260;2022-12-18T05:00:11;54.92;;;21.10;;
33268;SDS011;19640;50.944;5.260;2022-12-18T05:02:38;42.22;;;19.08;;
33268;SDS011;19640;50.944;5.260;2022-12-18T05:05:04;58.38;;;23.50;;
33268;SDS011;19640;50.944;5.260;2022-12-18T05:07:30;56.15;;;21.77;;
33268;SDS011;19640;50.944;5.260;2022-12-18T05:09:55;45.33;;;21.20;;
33268;SDS011;19640;50.944;5.260;2022-12-18T05:12:21;56.67;;;21.52;;
33268;SDS011;19640;50.944;5.260;2022-12-18T05:14:50;39.97;;;19.20;;
33268;SDS011;19640;50.944;5.260;2022-12-18T05:17:15;53.88;;;20.75;;
33268;SDS011;19640;50.944;5.260;2022-12-18T05:19:41;46.03;;;21.10;;
33268;SDS011;19640;50.944;5.260;2022-12-18T05:22:07;57.95;;;21.00;;
33268;SDS011;19640;50.944;5.260;2022-12-18T05:24:33;44.35;;;19.83;;
33268;SDS011;19640;50.944;5.260;2022-12-18T05:26:58;43.88;;;20.15;;
33268;SDS011;19640;50.944;5.260;2022-12-18T05:29:24;50.33;;;20.30;;
33268;SDS011;19640;50.944;5.260;2022-12-18T05:31:50;50.65;;;20.25;;
33268;SDS011;19640;50.944;5.260;2022-12-18T05:34:16;46.40;;;18.58;;
33268;SDS011;19640;50.944;5.260;2022-12-18T05:36:41;48.78;;;20.48;;
33268;SDS011;19640;50.944;5.260;2022-12-18T05:39:07;46.65;;;19.90;;
33268;SDS011;19640;50.944;5.260;2022-12-18T05:41:33;44.70;;;19.60;;
33268;SDS011;19640;50.944;5.260;2022-12-18T05:43:59;45.30;;;19.42;;
33268;SDS011;19640;50.944;5.260;2022-12-18T05:46:25;48.13;;;19.83;;
33268;SDS011;19640;50.944;5.260;2022-12-18T05:48:51;34.67;;;17.80;;
33268;SDS011;19640;50.944;5.260;2022-12-18T05:51:17;52.03;;;19.52;;
33268;SDS011;19640;50.944;5.260;2022-12-18T05:53:44;45.08;;;17.73;;
33268;SDS011;19640;50.944;5.260;2022-12-18T05:56:11;37.30;;;17.38;;
33268;SDS011;19640;50.944;5.260;2022-12-18T05:58:39;40.20;;;18.88;;
33268;SDS011;19640;50.944;5.260;2022-12-18T06:01:09;38.25;;;17.17;;
33268;SDS011;19640;50.944;5.260;2022-12-18T06:03:37;45.10;;;18.92;;
33268;SDS011;19640;50.944;5.260;2022-12-18T06:06:03;38.95;;;17.90;;
33268;SDS011;19640;50.944;5.260;2022-12-18T06:08:29;42.95;;;19.08;;
33268;SDS011;19640;50.944;5.260;2022-12-18T06:10:55;48.03;;;18.20;;
33268;SDS011;19640;50.944;5.260;2022-12-18T06:13:20;41.60;;;17.35;;
33268;SDS011;19640;50.944;5.260;2022-12-18T06:15:46;48.30;;;19.15;;
33268;SDS011;19640;50.944;5.260;2022-12-18T06:18:12;42.35;;;17.67;;
33268;SDS011;19640;50.944;5.260;2022-12-18T06:20:38;39.80;;;16.75;;
33268;SDS011;19640;50.944;5.260;2022-12-18T06:23:06;41.45;;;18.23;;
33268;SDS011;19640;50.944;5.260;2022-12-18T06:25:31;44.40;;;19.17;;
33268;SDS011;19640;50.944;5.260;2022-12-18T06:27:58;43.33;;;18.35;;
33268;SDS011;19640;50.944;5.260;2022-12-18T06:30:23;45.05;;;19.48;;
33268;SDS011;19640;50.944;5.260;2022-12-18T06:32:49;40.15;;;17.08;;
33268;SDS011;19640;50.944;5.260;2022-12-18T06:35:15;41.00;;;16.90;;
33268;SDS011;19640;50.944;5.260;2022-12-18T06:37:41;39.65;;;18.73;;
33268;SDS011;19640;50.944;5.260;2022-12-18T06:40:07;41.13;;;18.60;;
33268;SDS011;19640;50.944;5.260;2022-12-18T06:42:33;41.55;;;17.88;;
33268;SDS011;19640;50.944;5.260;2022-12-18T06:44:59;39.00;;;16.70;;
33268;SDS011;19640;50.944;5.260;2022-12-18T06:47:24;35.47;;;17.55;;
33268;SDS011;19640;50.944;5.260;2022-12-18T06:49:50;35.08;;;16.70;;
33268;SDS011;19640;50.944;5.260;2022-12-18T06:52:15;41.50;;;17.65;;
33268;SDS011;19640;50.944;5.260;2022-12-18T06:54:41;32.28;;;16.30;;
33268;SDS011;19640;50.944;5.260;2022-12-18T06:57:07;32.40;;;16.30;;
33268;SDS011;19640;50.944;5.260;2022-12-18T06:59:32;31.73;;;16.23;;
33268;SDS011;19640;50.944;5.260;2022-12-18T07:01:58;36.70;;;16.58;;
33268;SDS011;19640;50.944;5.260;2022-12-18T07:04:27;36.95;;;16.38;;
33268;SDS011;19640;50.944;5.260;2022-12-18T07:06:57;33.75;;;15.82;;
33268;SDS011;19640;50.944;5.260;2022-12-18T07:09:23;45.40;;;17.52;;
33268;SDS011;19640;50.944;5.260;2022-12-18T07:11:51;42.38;;;17.33;;
33268;SDS011;19640;50.944;5.260;2022-12-18T07:14:17;41.17;;;16.88;;
33268;SDS011;19640;50.944;5.260;2022-12-18T07:16:43;39.65;;;16.98;;
33268;SDS011;19640;50.944;5.260;2022-12-18T07:19:08;39.38;;;16.77;;
33268;SDS011;19640;50.944;5.260;2022-12-18T07:21:34;31.33;;;15.98;;
33268;SDS011;19640;50.944;5.260;2022-12-18T07:23:59;36.08;;;16.08;;
33268;SDS011;19640;50.944;5.260;2022-12-18T07:26:25;34.00;;;15.77;;
33268;SDS011;19640;50.944;5.260;2022-12-18T07:28:54;33.75;;;15.35;;
33268;SDS011;19640;50.944;5.260;2022-12-18T07:31:21;33.78;;;16.13;;
33268;SDS011;19640;50.944;5.260;2022-12-18T07:33:47;31.85;;;15.07;;
33268;SDS011;19640;50.944;5.260;2022-12-18T07:36:13;30.63;;;15.10;;
33268;SDS011;19640;50.944;5.260;2022-12-18T07:38:39;31.08;;;15.23;;
33268;SDS011;19640;50.944;5.260;2022-12-18T07:41:06;33.08;;;15.07;;
33268;SDS011;19640;50.944;5.260;2022-12-18T07:43:34;35.20;;;14.60;;
33268;SDS011;19640;50.944;5.260;2022-12-18T07:46:00;23.17;;;13.82;;
33268;SDS011;19640;50.944;5.260;2022-12-18T07:48:25;30.10;;;14.63;;
33268;SDS011;19640;50.944;5.260;2022-12-18T07:50:52;31.52;;;15.55;;
33268;SDS011;19640;50.944;5.260;2022-12-18T07:53:18;26.48;;;13.80;;
33268;SDS011;19640;50.944;5.260;2022-12-18T07:55:44;31.73;;;15.23;;
33268;SDS011;19640;50.944;5.260;2022-12-18T07:58:09;32.03;;;14.88;;
33268;SDS011;19640;50.944;5.260;2022-12-18T08:00:35;27.27;;;14.23;;
33268;SDS011;19640;50.944;5.260;2022-12-18T08:03:01;37.75;;;17.35;;
33268;SDS011;19640;50.944;5.260;2022-12-18T08:05:27;33.72;;;15.45;;
33268;SDS011;19640;50.944;5.260;2022-12-18T08:07:53;30.92;;;15.43;;
33268;SDS011;19640;50.944;5.260;2022-12-18T08:10:19;36.33;;;15.98;;
33268;SDS011;19640;50.944;5.260;2022-12-18T08:12:48;32.80;;;14.65;;
33268;SDS011;19640;50.944;5.260;2022-12-18T08:15:15;31.45;;;14.98;;
33268;SDS011;19640;50.944;5.260;2022-12-18T08:17:41;29.27;;;15.27;;
33268;SDS011;19640;50.944;5.260;2022-12-18T08:20:07;28.08;;;14.85;;
33268;SDS011;19640;50.944;5.260;2022-12-18T08:22:34;28.55;;;14.75;;
33268;SDS011;19640;50.944;5.260;2022-12-18T08:25:03;27.10;;;14.95;;
33268;SDS011;19640;50.944;5.260;2022-12-18T08:27:29;32.78;;;15.20;;
33268;SDS011;19640;50.944;5.260;2022-12-18T08:29:56;26.50;;;14.40;;
33268;SDS011;19640;50.944;5.260;2022-12-18T08:32:21;26.02;;;14.80;;
33268;SDS011;19640;50.944;5.260;2022-12-18T08:34:47;32.17;;;14.80;;
33268;SDS011;19640;50.944;5.260;2022-12-18T08:37:13;30.08;;;15.10;;
33268;SDS011;19640;50.944;5.260;2022-12-18T08:39:38;30.73;;;15.80;;
33268;SDS011;19640;50.944;5.260;2022-12-18T08:42:04;31.15;;;15.63;;
33268;SDS011;19640;50.944;5.260;2022-12-18T08:44:48;31.02;;;14.93;;
33268;SDS011;19640;50.944;5.260;2022-12-18T08:47:14;27.30;;;14.07;;
33268;SDS011;19640;50.944;5.260;2022-12-18T08:49:40;30.33;;;15.55;;
33268;SDS011;19640;50.944;5.260;2022-12-18T08:52:05;27.40;;;15.93;;
33268;SDS011;19640;50.944;5.260;2022-12-18T08:54:31;32.70;;;15.75;;
33268;SDS011;19640;50.944;5.260;2022-12-18T08:56:57;25.42;;;15.27;;
33268;SDS011;19640;50.944;5.260;2022-12-18T08:59:22;31.15;;;16.38;;
33268;SDS011;19640;50.944;5.260;2022-12-18T09:01:48;28.40;;;15.00;;
33268;SDS011;19640;50.944;5.260;2022-12-18T09:04:14;26.17;;;15.32;;
33268;SDS011;19640;50.944;5.260;2022-12-18T09:06:40;32.25;;;15.68;;
33268;SDS011;19640;50.944;5.260;2022-12-18T09:09:05;26.85;;;14.60;;
33268;SDS011;19640;50.944;5.260;2022-12-18T09:11:31;32.47;;;14.80;;
33268;SDS011;19640;50.944;5.260;2022-12-18T09:13:58;23.08;;;13.18;;
33268;SDS011;19640;50.944;5.260;2022-12-18T09:16:26;27.23;;;13.70;;
33268;SDS011;19640;50.944;5.260;2022-12-18T09:18:53;24.40;;;13.70;;
33268;SDS011;19640;50.944;5.260;2022-12-18T09:21:24;19.55;;;13.35;;
33268;SDS011;19640;50.944;5.260;2022-12-18T09:23:52;26.80;;;13.88;;
33268;SDS011;19640;50.944;5.260;2022-12-18T09:26:20;26.90;;;13.95;;
33268;SDS011;19640;50.944;5.260;2022-12-18T09:28:46;25.00;;;13.40;;
33268;SDS011;19640;50.944;5.260;2022-12-18T09:31:12;22.75;;;12.65;;
33268;SDS011;19640;50.944;5.260;2022-12-18T09:33:39;20.52;;;12.20;;
33268;SDS011;19640;50.944;5.260;2022-12-18T09:36:06;27.33;;;12.73;;
33268;SDS011;19640;50.944;5.260;2022-12-18T09:38:34;22.58;;;13.15;;
33268;SDS011;19640;50.944;5.260;2022-12-18T09:41:00;20.65;;;12.48;;
33268;SDS011;19640;50.944;5.260;2022-12-18T09:43:55;23.85;;;13.38;;
33268;SDS011;19640;50.944;5.260;2022-12-18T09:46:30;18.25;;;12.00;;
33268;SDS011;19640;50.944;5.260;2022-12-18T09:49:02;20.77;;;12.63;;
33268;SDS011;19640;50.944;5.260;2022-12-18T09:51:46;20.40;;;11.93;;
33268;SDS011;19640;50.944;5.260;2022-12-18T09:54:18;16.05;;;11.10;;
33268;SDS011;19640;50.944;5.260;2022-12-18T09:56:47;18.95;;;12.23;;
33268;SDS011;19640;50.944;5.260;2022-12-18T10:02:07;26.50;;;13.20;;
33268;SDS011;19640;50.944;5.260;2022-12-18T10:04:40;16.23;;;10.45;;
33268;SDS011;19640;50.944;5.260;2022-12-18T10:07:17;22.88;;;12.07;;
33268;SDS011;19640;50.944;5.260;2022-12-18T10:13:13;17.65;;;11.52;;
33268;SDS011;19640;50.944;5.260;2022-12-18T10:16:11;17.52;;;11.20;;
33268;SDS011;19640;50.944;5.260;2022-12-18T10:18:59;19.98;;;11.77;;
33268;SDS011;19640;50.944;5.260;2022-12-18T10:21:35;19.02;;;11.55;;
33268;SDS011;19640;50.944;5.260;2022-12-18T10:24:26;20.10;;;12.60;;
33268;SDS011;19640;50.944;5.260;2022-12-18T10:27:11;19.13;;;12.43;;
33268;SDS011;19640;50.944;5.260;2022-12-18T10:29:39;22.80;;;12.27;;
33268;SDS011;19640;50.944;5.260;2022-12-18T10:32:07;23.52;;;13.05;;
33268;SDS011;19640;50.944;5.260;2022-12-18T10:34:34;21.30;;;11.57;;
33268;SDS011;19640;50.944;5.260;2022-12-18T10:37:00;19.77;;;11.60;;
33268;SDS011;19640;50.944;5.260;2022-12-18T10:39:31;21.27;;;12.25;;
33268;SDS011;19640;50.944;5.260;2022-12-18T10:42:09;21.60;;;11.95;;
33268;SDS011;19640;50.944;5.260;2022-12-18T10:44:40;21.48;;;12.70;;
33268;SDS011;19640;50.944;5.260;2022-12-18T10:47:09;18.48;;;11.77;;
33268;SDS011;19640;50.944;5.260;2022-12-18T10:49:47;18.48;;;11.68;;
33268;SDS011;19640;50.944;5.260;2022-12-18T10:52:21;20.08;;;12.07;;
33268;SDS011;19640;50.944;5.260;2022-12-18T10:54:53;20.95;;;12.95;;
33268;SDS011;19640;50.944;5.260;2022-12-18T11:02:52;24.33;;;13.32;;
33268;SDS011;19640;50.944;5.260;2022-12-18T11:05:32;21.92;;;12.65;;
33268;SDS011;19640;50.944;5.260;2022-12-18T11:07:59;22.85;;;13.25;;
33268;SDS011;19640;50.944;5.260;2022-12-18T11:10:28;19.60;;;12.00;;
33268;SDS011;19640;50.944;5.260;2022-12-18T11:13:11;24.98;;;13.75;;
33268;SDS011;19640;50.944;5.260;2022-12-18T11:15:42;19.42;;;12.50;;
33268;SDS011;19640;50.944;5.260;2022-12-18T11:18:15;19.27;;;12.27;;
33268;SDS011;19640;50.944;5.260;2022-12-18T11:20:55;22.85;;;12.98;;
33268;SDS011;19640;50.944;5.260;2022-12-18T11:23:23;20.08;;;13.98;;
33268;SDS011;19640;50.944;5.260;2022-12-18T11:25:51;18.50;;;13.05;;
33268;SDS011;19640;50.944;5.260;2022-12-18T11:33:37;19.90;;;13.27;;
33268;SDS011;19640;50.944;5.260;2022-12-18T11:36:08;20.98;;;12.43;;
33268;SDS011;19640;50.944;5.260;2022-12-18T11:38:36;25.95;;;14.13;;
33268;SDS011;19640;50.944;5.260;2022-12-18T11:44:08;22.52;;;13.75;;
33268;SDS011;19640;50.944;5.260;2022-12-18T11:49:54;23.70;;;13.80;;
33268;SDS011;19640;50.944;5.260;2022-12-18T11:52:26;18.98;;;13.35;;
33268;SDS011;19640;50.944;5.260;2022-12-18T11:54:58;24.23;;;13.48;;
33268;SDS011;19640;50.944;5.260;2022-12-18T12:08:20;24.50;;;14.55;;
33268;SDS011;19640;50.944;5.260;2022-12-18T12:27:11;20.45;;;13.75;;
33268;SDS011;19640;50.944;5.260;2022-12-18T12:32:34;22.60;;;13.43;;
33268;SDS011;19640;50.944;5.260;2022-12-18T12:38:24;19.80;;;12.10;;
33268;SDS011;19640;50.944;5.260;2022-12-18T12:40:35;19.10;;;13.05;;
33268;SDS011;19640;50.944;5.260;2022-12-18T12:43:12;21.02;;;13.95;;
33268;SDS011;19640;50.944;5.260;2022-12-18T12:45:52;24.58;;;13.05;;
33268;SDS011;19640;50.944;5.260;2022-12-18T12:48:38;18.67;;;12.93;;
33268;SDS011;19640;50.944;5.260;2022-12-18T12:51:12;16.00;;;11.90;;
33268;SDS011;19640;50.944;5.260;2022-12-18T12:53:44;23.40;;;14.32;;
33268;SDS011;19640;50.944;5.260;2022-12-18T12:56:11;21.52;;;14.23;;
33268;SDS011;19640;50.944;5.260;2022-12-18T12:58:51;20.83;;;13.48;;
33268;SDS011;19640;50.944;5.260;2022-12-18T13:01:27;23.50;;;13.82;;
33268;SDS011;19640;50.944;5.260;2022-12-18T13:07:12;21.65;;;13.02;;
33268;SDS011;19640;50.944;5.260;2022-12-18T13:12:55;24.60;;;13.43;;
33268;SDS011;19640;50.944;5.260;2022-12-18T13:15:38;20.25;;;13.70;;
33268;SDS011;19640;50.944;5.260;2022-12-18T13:18:21;22.15;;;13.82;;
33268;SDS011;19640;50.944;5.260;2022-12-18T13:20:50;26.50;;;15.35;;
33268;SDS011;19640;50.944;5.260;2022-12-18T13:23:28;20.00;;;14.20;;
33268;SDS011;19640;50.944;5.260;2022-12-18T13:33:40;25.08;;;14.32;;
33268;SDS011;19640;50.944;5.260;2022-12-18T13:38:47;22.50;;;14.60;;
33268;SDS011;19640;50.944;5.260;2022-12-18T13:46:54;24.75;;;14.85;;
33268;SDS011;19640;50.944;5.260;2022-12-18T13:49:24;27.30;;;14.93;;
33268;SDS011;19640;50.944;5.260;2022-12-18T13:51:52;22.00;;;14.85;;
33268;SDS011;19640;50.944;5.260;2022-12-18T13:54:30;27.88;;;15.02;;
33268;SDS011;19640;50.944;5.260;2022-12-18T13:57:02;23.52;;;14.95;;
33268;SDS011;19640;50.944;5.260;2022-12-18T13:59:37;36.20;;;16.70;;
33268;SDS011;19640;50.944;5.260;2022-12-18T14:02:14;27.45;;;15.68;;
33268;SDS011;19640;50.944;5.260;2022-12-18T14:04:44;24.50;;;14.68;;
33268;SDS011;19640;50.944;5.260;2022-12-18T14:07:15;25.08;;;15.05;;
33268;SDS011;19640;50.944;5.260;2022-12-18T14:09:45;24.73;;;14.85;;
33268;SDS011;19640;50.944;5.260;2022-12-18T14:12:32;31.15;;;16.08;;
33268;SDS011;19640;50.944;5.260;2022-12-18T14:18:01;27.40;;;16.50;;
33268;SDS011;19640;50.944;5.260;2022-12-18T14:20:49;27.38;;;15.77;;
33268;SDS011;19640;50.944;5.260;2022-12-18T14:26:24;27.27;;;16.55;;
33268;SDS011;19640;50.944;5.260;2022-12-18T14:28:54;25.30;;;17.02;;
33268;SDS011;19640;50.944;5.260;2022-12-18T14:31:24;29.45;;;16.42;;
33268;SDS011;19640;50.944;5.260;2022-12-18T14:33:51;23.90;;;15.45;;
33268;SDS011;19640;50.944;5.260;2022-12-18T14:36:19;26.27;;;15.30;;
33268;SDS011;19640;50.944;5.260;2022-12-18T14:38:48;31.15;;;16.17;;
33268;SDS011;19640;50.944;5.260;2022-12-18T14:41:21;20.50;;;14.27;;
33268;SDS011;19640;50.944;5.260;2022-12-18T14:43:49;26.58;;;15.57;;
33268;SDS011;19640;50.944;5.260;2022-12-18T14:46:35;22.15;;;14.63;;
33268;SDS011;19640;50.944;5.260;2022-12-18T14:51:58;25.70;;;16.23;;
33268;SDS011;19640;50.944;5.260;2022-12-18T14:54:29;26.42;;;15.52;;
33268;SDS011;19640;50.944;5.260;2022-12-18T14:59:25;25.95;;;15.18;;
33268;SDS011;19640;50.944;5.260;2022-12-18T15:01:56;25.30;;;14.77;;
33268;SDS011;19640;50.944;5.260;2022-12-18T15:04:39;27.55;;;15.48;;
33268;SDS011;19640;50.944;5.260;2022-12-18T15:09:42;21.52;;;14.05;;
33268;SDS011;19640;50.944;5.260;2022-12-18T15:17:59;29.67;;;14.40;;
33268;SDS011;19640;50.944;5.260;2022-12-18T15:20:25;27.65;;;14.63;;
33268;SDS011;19640;50.944;5.260;2022-12-18T15:22:51;22.50;;;15.10;;
33268;SDS011;19640;50.944;5.260;2022-12-18T15:25:35;27.38;;;14.40;;
33268;SDS011;19640;50.944;5.260;2022-12-18T15:28:03;25.55;;;15.70;;
33268;SDS011;19640;50.944;5.260;2022-12-18T15:30:38;25.05;;;15.15;;
33268;SDS011;19640;50.944;5.260;2022-12-18T15:33:17;25.02;;;13.85;;
33268;SDS011;19640;50.944;5.260;2022-12-18T15:35:55;28.95;;;15.05;;
33268;SDS011;19640;50.944;5.260;2022-12-18T15:38:26;33.80;;;15.73;;
33268;SDS011;19640;50.944;5.260;2022-12-18T15:40:52;31.65;;;16.80;;
33268;SDS011;19640;50.944;5.260;2022-12-18T15:43:20;33.42;;;17.38;;
33268;SDS011;19640;50.944;5.260;2022-12-18T15:46:06;25.35;;;14.15;;
33268;SDS011;19640;50.944;5.260;2022-12-18T15:48:40;34.85;;;17.25;;
33268;SDS011;19640;50.944;5.260;2022-12-18T15:51:10;32.10;;;16.27;;
33268;SDS011;19640;50.944;5.260;2022-12-18T15:53:42;26.40;;;15.70;;
33268;SDS011;19640;50.944;5.260;2022-12-18T15:56:12;28.40;;;16.17;;
33268;SDS011;19640;50.944;5.260;2022-12-18T15:58:57;24.48;;;14.75;;
33268;SDS011;19640;50.944;5.260;2022-12-18T16:01:23;38.13;;;19.10;;
33268;SDS011;19640;50.944;5.260;2022-12-18T16:03:50;36.30;;;20.25;;
33268;SDS011;19640;50.944;5.260;2022-12-18T16:06:16;28.13;;;17.73;;
33268;SDS011;19640;50.944;5.260;2022-12-18T16:08:42;34.10;;;16.73;;
33268;SDS011;19640;50.944;5.260;2022-12-18T16:11:20;29.73;;;16.17;;
33268;SDS011;19640;50.944;5.260;2022-12-18T16:16:46;28.42;;;15.95;;
33268;SDS011;19640;50.944;5.260;2022-12-18T16:19:16;27.60;;;14.57;;
33268;SDS011;19640;50.944;5.260;2022-12-18T16:21:42;30.83;;;16.90;;
33268;SDS011;19640;50.944;5.260;2022-12-18T16:24:12;30.90;;;15.80;;
33268;SDS011;19640;50.944;5.260;2022-12-18T16:26:42;32.92;;;16.75;;
33268;SDS011;19640;50.944;5.260;2022-12-18T16:29:08;25.50;;;15.27;;
33268;SDS011;19640;50.944;5.260;2022-12-18T16:31:34;25.25;;;14.75;;
33268;SDS011;19640;50.944;5.260;2022-12-18T16:36:57;30.55;;;16.52;;
33268;SDS011;19640;50.944;5.260;2022-12-18T16:39:25;33.95;;;16.02;;
33268;SDS011;19640;50.944;5.260;2022-12-18T16:41:51;27.05;;;15.13;;
33268;SDS011;19640;50.944;5.260;2022-12-18T16:44:17;30.33;;;15.18;;
33268;SDS011;19640;50.944;5.260;2022-12-18T16:46:44;31.08;;;16.15;;